createdAt,value
2022-12-31T00:00:16.726Z,11.38
2022-12-31T00:02:43.768Z,11.75
2022-12-31T00:05:11.354Z,12.12
2022-12-31T00:10:05.034Z,12.12
2022-12-31T00:12:32.306Z,11.68
2022-12-31T00:14:59.277Z,12.00
2022-12-31T00:17:26.263Z,11.97
2022-12-31T00:19:53.162Z,12.00
2022-12-31T00:22:22.698Z,11.72
2022-12-31T00:24:49.603Z,12.09
2022-12-31T00:27:16.848Z,11.96
2022-12-31T00:29:43.767Z,12.14
2022-12-31T00:32:10.659Z,11.61
2022-12-31T00:34:37.592Z,11.64
2022-12-31T00:37:04.903Z,11.58
2022-12-31T00:39:31.801Z,11.86
2022-12-31T00:41:58.799Z,11.99
2022-12-31T00:44:25.718Z,11.41
2022-12-31T00:46:52.624Z,11.71
2022-12-31T00:49:19.551Z,11.58
2022-12-31T00:51:46.874Z,11.92
2022-12-31T00:54:13.883Z,11.86
2022-12-31T00:56:40.891Z,12.16
2022-12-31T00:59:07.932Z,11.89
2022-12-31T01:01:39.444Z,11.75
2022-12-31T01:04:07.762Z,12.15
2022-12-31T01:06:37.997Z,11.75
2022-12-31T01:09:05.755Z,11.82
2022-12-31T01:11:32.962Z,11.89
2022-12-31T01:13:59.814Z,12.13
2022-12-31T01:16:29.541Z,11.98
2022-12-31T01:19:01.588Z,11.83
2022-12-31T01:21:28.694Z,11.93
2022-12-31T01:23:55.587Z,11.83
2022-12-31T01:26:22.516Z,11.67
2022-12-31T01:28:49.442Z,11.51
2022-12-31T01:31:18.781Z,11.70
2022-12-31T01:33:46.358Z,11.96
2022-12-31T01:36:26.857Z,10.99
2022-12-31T01:38:55.171Z,11.57
2022-12-31T01:41:24.776Z,11.87
2022-12-31T01:43:56.578Z,11.84
2022-12-31T01:46:34.834Z,12.03
2022-12-31T01:49:22.973Z,12.01
2022-12-31T01:51:55.820Z,11.67
2022-12-31T01:54:23.178Z,11.76
2022-12-31T01:56:50.547Z,11.97
2022-12-31T01:59:17.776Z,11.54
2022-12-31T02:04:24.744Z,11.41
2022-12-31T02:07:05.808Z,11.96
2022-12-31T02:09:33.009Z,11.82
2022-12-31T02:12:00.116Z,11.76
2022-12-31T02:14:32.107Z,11.14
2022-12-31T02:17:33.040Z,11.93
2022-12-31T02:20:23.840Z,11.93
2022-12-31T02:23:16.134Z,11.87
2022-12-31T02:26:16.947Z,11.91
2022-12-31T02:28:58.397Z,11.90
2022-12-31T02:31:30.502Z,11.87
2022-12-31T02:34:01.342Z,11.88
2022-12-31T02:36:30.263Z,11.78
2022-12-31T02:38:57.218Z,11.66
2022-12-31T02:41:42.721Z,11.89
2022-12-31T02:44:27.673Z,11.67
2022-12-31T02:47:01.093Z,11.68
2022-12-31T02:49:50.729Z,11.76
2022-12-31T02:52:44.950Z,11.03
2022-12-31T02:55:33.739Z,11.46
2022-12-31T02:58:22.766Z,11.86
2022-12-31T03:01:09.788Z,11.45
2022-12-31T03:03:37.020Z,11.87
2022-12-31T03:06:04.305Z,11.59
2022-12-31T03:08:31.263Z,11.44
2022-12-31T03:10:58.253Z,11.18
2022-12-31T03:13:25.202Z,11.73
2022-12-31T03:15:52.181Z,11.34
2022-12-31T03:18:39.628Z,11.18
2022-12-31T03:21:32.674Z,11.76
2022-12-31T03:24:18.106Z,11.73
2022-12-31T03:26:45.049Z,11.81
2022-12-31T03:29:11.958Z,11.51
2022-12-31T03:31:38.878Z,11.31
2022-12-31T03:34:05.990Z,11.42
2022-12-31T03:36:32.922Z,11.45
2022-12-31T03:38:59.842Z,11.44
2022-12-31T03:41:26.798Z,11.64
2022-12-31T03:43:53.709Z,11.34
2022-12-31T03:46:20.704Z,11.61
2022-12-31T03:48:47.626Z,11.42
2022-12-31T03:51:14.539Z,11.60
2022-12-31T03:53:41.465Z,11.49
2022-12-31T03:56:08.442Z,11.51
2022-12-31T03:58:35.340Z,11.46
2022-12-31T04:01:02.573Z,11.59
2022-12-31T04:03:29.522Z,11.73
2022-12-31T04:05:56.476Z,11.79
2022-12-31T04:08:23.877Z,11.43
2022-12-31T04:10:50.817Z,11.51
2022-12-31T04:13:17.720Z,11.60
2022-12-31T04:15:44.703Z,11.77
2022-12-31T04:18:11.684Z,11.46
2022-12-31T04:20:38.655Z,11.59
2022-12-31T04:23:05.545Z,11.55
2022-12-31T04:25:32.637Z,11.38
2022-12-31T04:27:59.562Z,11.71
2022-12-31T04:30:26.503Z,11.42
2022-12-31T04:32:53.446Z,11.24
2022-12-31T04:35:20.676Z,11.67
2022-12-31T04:37:47.637Z,11.17
2022-12-31T04:40:14.600Z,11.36
2022-12-31T04:42:41.508Z,11.56
2022-12-31T04:45:08.800Z,11.34
2022-12-31T06:04:07.282Z,11.04
2022-12-31T06:06:34.195Z,11.01
2022-12-31T06:09:01.123Z,10.86
2022-12-31T06:11:28.071Z,10.90
2022-12-31T06:13:55.000Z,10.68
2022-12-31T06:16:22.014Z,11.27
2022-12-31T06:18:50.805Z,11.11
2022-12-31T06:21:18.447Z,10.84
2022-12-31T06:23:45.426Z,11.09
2022-12-31T06:26:12.325Z,10.96
2022-12-31T06:28:39.815Z,11.29
2022-12-31T06:31:08.142Z,11.24
2022-12-31T06:33:35.452Z,11.17
2022-12-31T06:36:04.864Z,10.89
2022-12-31T06:38:37.057Z,11.16
2022-12-31T06:41:08.287Z,11.05
2022-12-31T06:43:35.413Z,11.19
2022-12-31T06:46:03.427Z,10.88
2022-12-31T06:48:30.747Z,10.65
2022-12-31T06:50:57.853Z,11.27
2022-12-31T06:53:24.761Z,11.16
2022-12-31T06:55:51.764Z,11.06
2022-12-31T06:58:18.803Z,10.95
2022-12-31T07:01:11.563Z,11.39
2022-12-31T07:03:53.652Z,11.38
2022-12-31T07:06:28.289Z,11.41
2022-12-31T07:08:57.032Z,11.44
2022-12-31T07:11:28.884Z,11.01
2022-12-31T07:14:36.179Z,10.52
2022-12-31T07:17:30.721Z,11.41
2022-12-31T07:20:16.644Z,11.08
2022-12-31T07:22:44.634Z,11.25
2022-12-31T07:25:18.474Z,11.31
2022-12-31T07:28:04.024Z,11.58
2022-12-31T07:30:55.584Z,11.61
2022-12-31T07:33:30.446Z,11.41
2022-12-31T07:36:13.321Z,11.70
2022-12-31T07:38:42.884Z,11.76
2022-12-31T07:41:23.691Z,11.60
2022-12-31T07:44:08.643Z,11.61
2022-12-31T07:46:47.193Z,11.90
2022-12-31T07:49:14.607Z,11.64
2022-12-31T07:51:41.926Z,11.76
2022-12-31T07:54:13.945Z,11.94
2022-12-31T07:56:42.104Z,11.78
2022-12-31T07:59:47.130Z,12.15
2022-12-31T08:02:50.685Z,12.21
2022-12-31T08:05:41.154Z,12.27
2022-12-31T08:08:32.754Z,12.34
2022-12-31T08:11:14.605Z,12.34
2022-12-31T08:13:41.643Z,12.07
2022-12-31T08:16:12.509Z,12.27
2022-12-31T08:18:40.010Z,12.21
2022-12-31T08:21:16.054Z,12.53
2022-12-31T08:24:24.284Z,12.48
2022-12-31T08:26:54.024Z,12.40
2022-12-31T08:29:32.906Z,12.66
2022-12-31T08:32:22.878Z,12.64
2022-12-31T08:35:20.833Z,12.76
2022-12-31T08:38:35.437Z,12.79
2022-12-31T08:41:16.189Z,12.56
2022-12-31T08:44:25.819Z,12.89
2022-12-31T08:47:03.568Z,12.76
2022-12-31T08:49:33.976Z,12.71
2022-12-31T08:52:02.732Z,13.01
2022-12-31T08:54:30.111Z,12.72
2022-12-31T08:57:30.597Z,12.96
2022-12-31T09:00:11.870Z,13.07
2022-12-31T09:02:48.262Z,13.08
2022-12-31T09:05:20.634Z,13.08
2022-12-31T09:08:04.216Z,12.70
2022-12-31T09:10:51.757Z,12.57
2022-12-31T09:13:33.190Z,12.67
2022-12-31T09:16:27.963Z,13.13
2022-12-31T09:18:54.864Z,13.06
2022-12-31T09:21:21.942Z,13.01
2022-12-31T09:23:48.995Z,12.99
2022-12-31T09:26:40.087Z,12.97
2022-12-31T09:29:12.878Z,13.20
2022-12-31T09:31:46.074Z,13.17
2022-12-31T09:34:17.455Z,12.89
2022-12-31T09:36:49.674Z,12.89
2022-12-31T09:39:41.086Z,13.07
2022-12-31T09:42:42.642Z,13.05
2022-12-31T09:45:25.212Z,13.23
2022-12-31T09:48:32.818Z,13.33
2022-12-31T09:51:25.578Z,13.19
2022-12-31T09:54:01.077Z,13.38
2022-12-31T09:56:59.117Z,12.61
2022-12-31T09:59:35.313Z,13.45
2022-12-31T10:02:41.576Z,13.50
2022-12-31T10:05:34.302Z,13.52
2022-12-31T10:08:07.474Z,13.56
2022-12-31T10:10:53.901Z,13.59
2022-12-31T10:13:34.782Z,13.62
2022-12-31T10:16:32.713Z,13.64
2022-12-31T10:19:18.442Z,13.65
2022-12-31T10:22:14.087Z,13.67
2022-12-31T10:24:43.797Z,13.70
2022-12-31T10:27:40.123Z,13.70
2022-12-31T10:30:19.400Z,13.62
2022-12-31T10:33:20.754Z,13.65
2022-12-31T10:36:30.113Z,13.73
2022-12-31T10:39:31.734Z,13.72
2022-12-31T10:42:40.002Z,13.71
2022-12-31T10:46:03.299Z,13.72
2022-12-31T10:49:00.477Z,13.70
2022-12-31T10:52:00.564Z,13.68
2022-12-31T10:54:58.327Z,13.73
2022-12-31T10:58:03.791Z,13.45
2022-12-31T11:00:43.847Z,13.53
2022-12-31T11:04:19.396Z,13.60
2022-12-31T11:07:15.752Z,13.85
2022-12-31T11:10:38.681Z,13.88
2022-12-31T11:13:54.405Z,13.93
2022-12-31T11:17:11.874Z,13.98
2022-12-31T11:20:17.860Z,14.04
2022-12-31T11:23:10.660Z,14.10
2022-12-31T11:26:17.519Z,14.15
2022-12-31T11:29:18.857Z,14.19
2022-12-31T11:32:23.941Z,14.23
2022-12-31T11:35:08.874Z,14.28
2022-12-31T11:37:52.435Z,14.33
2022-12-31T11:40:34.124Z,14.36
2022-12-31T11:43:10.708Z,14.41
2022-12-31T11:45:50.368Z,14.43
2022-12-31T11:48:32.834Z,14.20
2022-12-31T11:51:22.691Z,14.43
2022-12-31T11:54:27.238Z,14.39
2022-12-31T11:57:08.497Z,14.15
2022-12-31T11:59:35.604Z,13.89
2022-12-31T12:02:15.210Z,13.82
2022-12-31T12:04:42.458Z,14.30
2022-12-31T12:07:12.815Z,14.27
2022-12-31T12:09:40.003Z,14.22
2022-12-31T12:12:07.090Z,14.20
2022-12-31T12:14:42.532Z,14.00
2022-12-31T12:17:18.071Z,14.00
2022-12-31T12:19:47.866Z,13.90
2022-12-31T12:22:21.491Z,14.05
2022-12-31T12:25:20.789Z,14.14
2022-12-31T12:27:48.081Z,13.83
2022-12-31T12:30:27.327Z,13.49
2022-12-31T12:32:59.982Z,13.80
2022-12-31T12:35:31.994Z,13.60
2022-12-31T12:38:06.329Z,13.81
2022-12-31T12:40:34.647Z,13.60
2022-12-31T12:43:02.599Z,13.79
2022-12-31T12:45:46.330Z,13.66
2022-12-31T12:48:35.492Z,13.78
2022-12-31T12:51:06.676Z,13.72
2022-12-31T12:53:49.823Z,13.89
2022-12-31T12:56:41.563Z,13.43
2022-12-31T12:59:38.732Z,13.87
2022-12-31T13:02:14.652Z,13.87
2022-12-31T13:04:59.981Z,13.88
2022-12-31T13:07:29.663Z,13.91
2022-12-31T13:10:16.488Z,13.91
2022-12-31T13:13:24.813Z,13.94
2022-12-31T13:15:59.832Z,13.84
2022-12-31T13:19:00.955Z,14.00
2022-12-31T13:21:49.204Z,14.09
2022-12-31T13:24:18.992Z,13.94
2022-12-31T13:26:54.172Z,13.95
2022-12-31T13:29:23.552Z,13.80
2022-12-31T13:31:50.634Z,14.28
2022-12-31T13:34:21.404Z,13.98
2022-12-31T13:36:49.028Z,13.88
2022-12-31T13:39:21.232Z,14.12
2022-12-31T13:42:13.227Z,14.27
2022-12-31T13:44:44.220Z,14.29
2022-12-31T13:47:27.552Z,13.89
2022-12-31T13:50:14.989Z,14.32
2022-12-31T13:53:02.910Z,13.96
2022-12-31T13:55:35.948Z,14.19
2022-12-31T13:58:28.012Z,14.18
2022-12-31T14:01:03.970Z,14.36
2022-12-31T14:03:54.954Z,14.37
2022-12-31T14:06:41.707Z,14.31
2022-12-31T14:09:11.199Z,14.36
2022-12-31T14:12:17.916Z,14.38
2022-12-31T14:15:14.708Z,14.13
2022-12-31T14:17:48.598Z,14.37
2022-12-31T14:20:33.612Z,14.37
2022-12-31T14:23:19.322Z,14.38
2022-12-31T14:25:55.036Z,14.31
2022-12-31T14:28:35.152Z,14.10
2022-12-31T14:31:09.719Z,14.37
2022-12-31T14:33:58.024Z,14.41
2022-12-31T14:36:33.954Z,14.41
2022-12-31T14:39:17.716Z,13.99
2022-12-31T14:41:59.696Z,14.40
2022-12-31T14:44:59.011Z,14.39
2022-12-31T14:47:59.344Z,14.37
2022-12-31T14:50:27.541Z,14.37
2022-12-31T14:52:56.443Z,14.37
2022-12-31T14:55:24.912Z,14.20
2022-12-31T14:58:26.345Z,14.36
2022-12-31T15:00:39.871Z,14.34
2022-12-31T15:03:15.875Z,14.03
2022-12-31T15:06:02.054Z,14.17
2022-12-31T15:08:40.826Z,14.27
2022-12-31T15:11:26.304Z,14.27
2022-12-31T15:14:36.824Z,14.24
2022-12-31T15:17:22.547Z,14.19
2022-12-31T15:19:52.378Z,14.18
2022-12-31T15:22:51.883Z,14.16
2022-12-31T15:25:21.685Z,14.16
2022-12-31T15:27:48.634Z,14.11
2022-12-31T15:30:37.417Z,14.20
2022-12-31T15:33:26.698Z,14.18
2022-12-31T15:35:55.875Z,14.18
2022-12-31T15:38:43.006Z,13.74
2022-12-31T15:41:13.856Z,13.98
2022-12-31T15:43:44.316Z,13.97
2022-12-31T15:46:22.159Z,14.19
2022-12-31T15:49:03.636Z,14.18
2022-12-31T15:51:33.659Z,14.04
2022-12-31T15:54:00.953Z,14.15
2022-12-31T15:56:45.267Z,14.09
2022-12-31T15:59:13.404Z,14.04
2022-12-31T16:01:41.629Z,13.11
2022-12-31T16:04:22.892Z,13.92
2022-12-31T16:06:51.191Z,13.82
2022-12-31T16:09:28.122Z,14.11
2022-12-31T16:11:55.365Z,13.84
2022-12-31T16:14:29.451Z,13.63
2022-12-31T16:16:58.343Z,13.89
2022-12-31T16:19:45.824Z,13.96
2022-12-31T16:22:18.309Z,13.99
2022-12-31T16:25:19.621Z,14.01
2022-12-31T16:27:32.275Z,13.80
2022-12-31T16:30:07.202Z,14.10
2022-12-31T16:32:36.115Z,14.09
2022-12-31T16:35:03.093Z,13.98
2022-12-31T16:37:30.013Z,14.15
2022-12-31T16:39:56.952Z,14.31
2022-12-31T16:42:25.187Z,14.33
2022-12-31T16:44:53.418Z,14.23
2022-12-31T16:47:22.395Z,14.12
2022-12-31T16:49:56.753Z,14.13
2022-12-31T16:52:27.920Z,14.12
2022-12-31T16:54:55.009Z,14.42
2022-12-31T16:57:24.081Z,14.15
2022-12-31T16:59:56.159Z,14.16
2022-12-31T17:02:40.686Z,14.19
2022-12-31T17:05:21.957Z,13.97
2022-12-31T17:07:49.231Z,13.92
2022-12-31T17:10:27.231Z,14.24
2022-12-31T17:15:43.765Z,14.21
2022-12-31T17:18:22.412Z,14.21
2022-12-31T17:20:51.495Z,14.40
2022-12-31T17:23:29.397Z,14.24
2022-12-31T17:26:00.833Z,14.17
2022-12-31T17:28:28.049Z,14.34
2022-12-31T17:30:59.991Z,14.59
2022-12-31T17:33:28.294Z,14.64
2022-12-31T17:36:16.515Z,14.68
2022-12-31T17:38:43.520Z,14.25
2022-12-31T17:41:24.751Z,14.71
2022-12-31T17:43:55.533Z,14.42
2022-12-31T17:46:23.857Z,14.51
2022-12-31T17:48:56.287Z,14.60
2022-12-31T17:51:24.363Z,14.36
2022-12-31T17:53:51.729Z,14.48
2022-12-31T17:56:18.731Z,14.36
2022-12-31T17:58:54.695Z,14.53
2022-12-31T18:01:22.959Z,14.56
2022-12-31T18:03:50.196Z,14.65
2022-12-31T18:06:19.412Z,14.54
2022-12-31T18:08:46.643Z,14.50
2022-12-31T18:11:18.766Z,14.47
2022-12-31T18:13:45.860Z,14.52
2022-12-31T18:16:12.965Z,14.38
2022-12-31T18:18:41.940Z,14.63
2022-12-31T18:21:23.690Z,14.66
2022-12-31T18:23:50.634Z,14.44
2022-12-31T18:26:19.616Z,14.47
2022-12-31T18:28:47.043Z,14.69
2022-12-31T18:31:21.361Z,14.40
2022-12-31T18:33:48.424Z,14.48
2022-12-31T18:36:17.754Z,14.68
2022-12-31T18:38:44.742Z,14.53
2022-12-31T18:41:19.487Z,14.48
2022-12-31T18:43:46.507Z,14.54
2022-12-31T18:46:15.201Z,14.64
2022-12-31T18:48:42.279Z,14.63
2022-12-31T18:51:20.053Z,14.85
2022-12-31T18:53:47.115Z,14.56
2022-12-31T18:56:16.317Z,14.59
2022-12-31T18:58:43.739Z,14.60
2022-12-31T19:01:40.874Z,14.86
2022-12-31T19:04:16.938Z,14.89
2022-12-31T19:06:47.437Z,14.38
2022-12-31T19:09:43.364Z,14.43
2022-12-31T19:12:01.726Z,14.50
2022-12-31T19:14:28.901Z,14.80
2022-12-31T19:16:57.115Z,14.88
2022-12-31T19:19:24.215Z,14.67
2022-12-31T19:21:51.375Z,14.68
2022-12-31T19:24:23.478Z,14.85
2022-12-31T19:26:50.682Z,14.98
2022-12-31T19:29:25.186Z,14.80
2022-12-31T19:31:52.282Z,14.66
2022-12-31T19:34:19.248Z,14.65
2022-12-31T19:36:46.347Z,14.95
2022-12-31T19:39:15.889Z,14.84
2022-12-31T19:41:43.780Z,14.65
2022-12-31T19:44:17.891Z,14.69
2022-12-31T19:46:45.733Z,14.48
2022-12-31T19:49:13.454Z,14.88
2022-12-31T19:51:40.877Z,14.94
2022-12-31T19:54:08.207Z,14.57
2022-12-31T19:56:35.246Z,14.86
2022-12-31T19:59:09.940Z,14.97
2022-12-31T20:01:37.115Z,14.79
2022-12-31T20:04:04.342Z,14.83
2022-12-31T20:06:31.511Z,14.90
2022-12-31T20:08:58.470Z,14.54
2022-12-31T20:11:25.450Z,14.70
2022-12-31T20:13:53.871Z,14.87
2022-12-31T20:16:22.685Z,14.73
2022-12-31T20:18:50.762Z,14.93
2022-12-31T20:21:20.248Z,14.70
2022-12-31T20:23:48.500Z,14.66
2022-12-31T20:26:15.423Z,14.72
2022-12-31T20:28:42.317Z,14.83
2022-12-31T20:31:14.187Z,14.83
2022-12-31T20:33:41.498Z,14.81
2022-12-31T20:36:10.768Z,14.67
2022-12-31T20:38:37.827Z,14.86
2022-12-31T20:41:09.710Z,14.87
2022-12-31T20:43:36.861Z,15.01
2022-12-31T20:46:15.314Z,14.15
2022-12-31T20:48:43.729Z,14.86
2022-12-31T20:51:11.059Z,15.02
2022-12-31T20:53:38.083Z,14.61
2022-12-31T20:56:06.062Z,14.69
2022-12-31T20:58:33.098Z,14.88
2022-12-31T21:01:00.174Z,14.90
2022-12-31T21:06:14.483Z,15.05
2022-12-31T21:08:41.569Z,14.54
2022-12-31T21:11:28.899Z,14.65
2022-12-31T21:13:56.684Z,14.82
2022-12-31T21:16:23.718Z,14.74
2022-12-31T21:18:50.775Z,14.86
2022-12-31T21:21:17.689Z,14.81
2022-12-31T21:23:44.583Z,14.82
2022-12-31T21:26:11.508Z,14.71
2022-12-31T21:28:38.544Z,14.65
2022-12-31T21:31:06.884Z,14.82
2022-12-31T21:33:34.205Z,14.66
2022-12-31T21:36:04.482Z,14.73
2022-12-31T21:38:31.971Z,14.78
2022-12-31T21:41:05.872Z,14.80
2022-12-31T21:43:33.053Z,14.55
2022-12-31T21:46:04.922Z,14.65
2022-12-31T21:48:32.403Z,14.56
2022-12-31T21:51:11.509Z,14.56
2022-12-31T21:53:38.468Z,14.47
2022-12-31T21:56:09.584Z,14.78
2022-12-31T21:58:39.705Z,14.50
2022-12-31T22:01:25.665Z,14.64
2022-12-31T22:03:52.730Z,14.76
2022-12-31T22:06:23.278Z,14.32
2022-12-31T22:08:52.229Z,13.88
2022-12-31T22:11:20.631Z,14.80
2022-12-31T22:13:47.707Z,14.52
2022-12-31T22:16:14.843Z,14.86
2022-12-31T22:18:42.976Z,14.66
2022-12-31T22:21:20.902Z,14.64
2022-12-31T22:23:49.061Z,14.78
2022-12-31T22:26:17.525Z,14.94
2022-12-31T22:28:45.036Z,14.57
2022-12-31T22:31:24.496Z,14.65
2022-12-31T22:33:51.637Z,14.61
2022-12-31T22:36:20.492Z,14.61
2022-12-31T22:38:47.888Z,14.51
2022-12-31T22:41:21.865Z,14.41
2022-12-31T22:43:50.642Z,14.71
2022-12-31T22:46:23.061Z,14.51
2022-12-31T22:48:50.771Z,14.82
2022-12-31T22:51:18.352Z,14.72
2022-12-31T22:53:45.440Z,14.63
2022-12-31T22:56:15.347Z,14.89
2022-12-31T22:58:42.260Z,14.61
2022-12-31T23:01:21.998Z,14.94
2022-12-31T23:03:50.140Z,14.93
2022-12-31T23:06:17.466Z,14.62
2022-12-31T23:09:07.136Z,14.59
2022-12-31T23:11:35.139Z,14.97
2022-12-31T23:14:21.025Z,14.92
2022-12-31T23:17:29.413Z,14.71
2022-12-31T23:20:12.105Z,14.63
2022-12-31T23:22:57.503Z,14.68
2022-12-31T23:25:24.405Z,14.42
2022-12-31T23:27:51.538Z,14.51
2022-12-31T23:30:18.673Z,14.30
2022-12-31T23:32:45.667Z,14.09
2022-12-31T23:35:12.733Z,14.04
2022-12-31T23:37:39.804Z,14.20
2022-12-31T23:40:07.896Z,14.07
2022-12-31T23:42:35.044Z,13.90
2022-12-31T23:45:06.061Z,14.15
2022-12-31T23:47:32.972Z,14.01
2022-12-31T23:49:59.856Z,13.98
2022-12-31T23:52:26.851Z,14.04
2022-12-31T23:54:53.736Z,14.07
2022-12-31T23:57:22.287Z,14.29
2022-12-31T23:59:49.162Z,13.94
